Time;durP1;ratioP1;P1;durP2;ratioP2;P2;SDS_P1;SDS_P2;PMS_P1;PMS_P2;Temp;Humidity;BMP_temperature;BMP_pressure;BME280_temperature;BME280_humidity;BME280_pressure;Samples;Min_cycle;Max_cycle;Signal;HPM_P1;HPM_P2
2022/07/21 00:02:16;;;;;;;7.87;7.47;;;;;;;18.26;57.99;93138.63;5082028;28;20225;-70
2022/07/21 00:04:42;;;;;;;8.37;7.87;;;;;;;18.19;58.24;93133.03;5083020;28;20191;-68
2022/07/21 00:07:07;;;;;;;9.30;8.60;;;;;;;18.14;57.99;93136.63;5080806;28;20235;-69
2022/07/21 00:09:35;;;;;;;9.67;8.27;;;;;;;18.19;58.19;93131.19;5063409;28;20202;-69
2022/07/21 00:12:01;;;;;;;10.43;9.53;;;;;;;18.19;58.18;93133.03;5077405;28;20213;-70
2022/07/21 00:14:26;;;;;;;8.17;7.43;;;;;;;18.02;59.21;93128.56;5081318;28;20186;-69
2022/07/21 00:16:52;;;;;;;8.53;8.13;;;;;;;18.03;60.41;93131.94;5063345;28;20244;-70
2022/07/21 00:19:17;;;;;;;8.63;8.23;;;;;;;18.08;59.74;93127.31;5080785;28;20212;-70
2022/07/21 00:21:43;;;;;;;9.03;8.23;;;;;;;18.11;59.21;93131.97;5079323;28;20213;-71
2022/07/21 00:24:08;;;;;;;8.50;8.10;;;;;;;18.11;58.69;93133.81;5080608;28;20165;-70
2022/07/21 00:26:33;;;;;;;8.87;8.27;;;;;;;17.94;58.60;93120.59;5080040;28;20221;-69
2022/07/21 00:28:59;;;;;;;8.63;8.03;;;;;;;18.13;58.93;93145.66;5080273;28;20210;-70
2022/07/21 00:31:24;;;;;;;8.20;7.63;;;;;;;18.01;59.16;93131.50;5078380;28;20251;-70
2022/07/21 00:33:51;;;;;;;8.63;8.23;;;;;;;17.89;60.99;93139.25;5078929;28;20181;-70
2022/07/21 00:36:17;;;;;;;9.10;8.60;;;;;;;17.94;61.12;93144.38;5075160;28;20229;-69
2022/07/21 00:38:43;;;;;;;8.20;7.60;;;;;;;17.97;60.64;93147.19;5080991;28;20181;-72
2022/07/21 00:41:08;;;;;;;8.43;7.73;;;;;;;18.00;59.63;93148.44;5076708;28;20244;-69
2022/07/21 00:43:34;;;;;;;8.50;7.90;;;;;;;17.93;61.19;93145.47;5058422;28;20190;-69
2022/07/21 00:45:59;;;;;;;9.27;8.77;;;;;;;17.69;60.80;93127.44;5077833;28;20229;-71
2022/07/21 00:48:24;;;;;;;8.77;8.27;;;;;;;17.81;60.43;93132.09;5081393;28;20209;-70
2022/07/21 00:50:50;;;;;;;9.33;8.70;;;;;;;17.92;59.48;93130.69;5079309;28;20279;-69
2022/07/21 00:53:15;;;;;;;9.83;8.87;;;;;;;17.83;59.24;93132.56;5080049;28;20181;-71
2022/07/21 00:55:44;;;;;;;11.67;8.50;;;;;;;17.94;59.19;93131.97;5079168;28;20191;-69
2022/07/21 00:58:09;;;;;;;11.47;9.57;;;;;;;18.01;58.91;93134.91;5083439;28;20193;-70
2022/07/21 01:00:35;;;;;;;11.27;9.63;;;;;;;17.79;60.83;93129.00;5057779;28;20196;-70
2022/07/21 01:03:01;;;;;;;9.70;8.50;;;;;;;17.75;60.48;93133.31;5080222;28;20259;-70
2022/07/21 01:05:26;;;;;;;8.40;7.90;;;;;;;17.80;61.12;93141.09;5080644;28;20181;-70
2022/07/21 01:07:55;;;;;;;9.13;8.53;;;;;;;17.83;60.99;93135.22;5077579;28;20220;-68
2022/07/21 01:10:23;;;;;;;8.73;7.93;;;;;;;17.69;60.89;93135.34;5080096;28;20186;-70
2022/07/21 01:12:49;;;;;;;9.10;8.40;;;;;;;17.61;61.20;93120.28;5081326;28;20224;-69
2022/07/21 01:15:16;;;;;;;8.80;8.30;;;;;;;17.54;61.85;93118.09;5077888;28;20192;-70
2022/07/21 01:17:43;;;;;;;8.63;8.13;;;;;;;17.67;61.70;93126.16;5078143;28;20215;-69
2022/07/21 01:20:12;;;;;;;8.93;8.53;;;;;;;17.58;61.46;93119.03;5081025;28;20766;-69
2022/07/21 01:22:40;;;;;;;8.13;7.73;;;;;;;17.59;61.38;93112.66;5075487;28;20221;-70
2022/07/21 01:25:07;;;;;;;8.67;8.27;;;;;;;17.38;61.01;93109.03;5080198;28;20185;-70
2022/07/21 01:27:32;;;;;;;8.83;8.33;;;;;;;17.37;61.40;93102.19;5078295;28;20221;-68
2022/07/21 01:29:58;;;;;;;8.13;7.73;;;;;;;17.41;61.78;93110.28;5078754;28;20213;-69
2022/07/21 01:32:24;;;;;;;9.17;8.67;;;;;;;17.35;62.18;93114.16;5080542;28;20209;-70
2022/07/21 01:34:50;;;;;;;8.97;8.53;;;;;;;17.42;62.06;93115.25;5077822;28;20224;-70
2022/07/21 01:37:19;;;;;;;9.07;8.57;;;;;;;17.37;62.03;93104.81;5080067;28;20221;-69
2022/07/21 01:42:31;;;;;;;9.23;8.67;;;;;;;17.27;62.83;93109.63;5079240;28;20251;-70
2022/07/21 01:44:57;;;;;;;8.40;8.00;;;;;;;17.24;63.18;93097.81;5078645;28;20190;-70
2022/07/21 01:47:22;;;;;;;9.40;8.80;;;;;;;17.21;63.20;93081.81;5076348;28;20277;-70
2022/07/21 01:49:48;;;;;;;10.73;10.03;;;;;;;17.33;63.50;93103.88;5077067;28;20561;-70
2022/07/21 01:52:13;;;;;;;9.33;8.83;;;;;;;17.30;63.01;93096.59;5074862;28;20255;-70
2022/07/21 01:54:39;;;;;;;9.17;8.47;;;;;;;17.27;62.62;93101.69;5081606;28;20201;-69
2022/07/21 01:57:04;;;;;;;9.63;8.93;;;;;;;17.26;62.55;93103.53;5080920;28;20232;-69
2022/07/21 01:59:29;;;;;;;7.77;7.40;;;;;;;17.31;62.83;93102.63;5083668;28;20216;-70
2022/07/21 02:01:55;;;;;;;9.20;8.70;;;;;;;17.22;62.80;93092.06;5087350;28;20228;-70
2022/07/21 02:04:20;;;;;;;8.70;8.17;;;;;;;17.31;62.77;93103.41;5082587;28;20225;-71
2022/07/21 02:06:46;;;;;;;9.37;8.97;;;;;;;17.17;62.69;93092.19;5082574;28;20221;-70
2022/07/21 02:09:11;;;;;;;8.17;7.77;;;;;;;16.96;62.81;93054.28;5083772;28;20224;-70
2022/07/21 02:11:37;;;;;;;9.60;9.03;;;;;;;17.27;62.73;93105.13;5081150;28;20220;-70
2022/07/21 02:14:03;;;;;;;9.80;9.30;;;;;;;17.17;62.85;93097.47;5083836;28;20197;-70
2022/07/21 02:16:29;;;;;;;8.67;8.27;;;;;;;17.08;63.07;93109.88;5078929;28;20276;-69
2022/07/21 02:18:54;;;;;;;9.43;8.93;;;;;;;17.05;62.70;93099.94;5084100;28;20200;-70
2022/07/21 02:21:20;;;;;;;8.63;8.23;;;;;;;17.09;63.16;93100.88;5079094;28;20308;-69
2022/07/21 02:23:45;;;;;;;8.73;8.20;;;;;;;17.06;63.59;93101.47;5083820;28;20185;-70
2022/07/21 02:26:11;;;;;;;8.63;8.13;;;;;;;17.12;64.08;93105.53;5081986;28;20221;-69
2022/07/21 02:28:36;;;;;;;8.97;8.27;;;;;;;17.15;63.58;93098.88;5083452;28;20250;-70
2022/07/21 02:31:02;;;;;;;10.13;8.23;;;;;;;16.95;63.99;93094.91;5078160;28;20229;-70
2022/07/21 02:33:28;;;;;;;9.50;9.00;;;;;;;16.99;64.24;93089.81;5083802;28;20188;-70
2022/07/21 02:35:53;;;;;;;8.87;8.47;;;;;;;17.05;63.95;93093.88;5061213;28;20389;-71
2022/07/21 02:38:18;;;;;;;8.70;8.27;;;;;;;16.86;63.74;93085.41;5082893;28;20221;-70
2022/07/21 02:40:44;;;;;;;8.27;7.93;;;;;;;17.01;63.50;93093.69;5082498;28;20185;-69
2022/07/21 02:43:09;;;;;;;8.97;8.27;;;;;;;16.94;63.78;93090.72;5080805;28;20252;-70
2022/07/21 02:45:36;;;;;;;8.80;7.93;;;;;;;16.98;63.84;93090.91;5082604;28;20185;-69
2022/07/21 02:48:08;;;;;;;9.80;9.17;;;;;;;16.96;63.94;93091.22;5082463;28;20228;-70
2022/07/21 02:50:36;;;;;;;8.73;8.13;;;;;;;16.90;64.44;93089.78;5079839;28;20204;-70
2022/07/21 02:53:08;;;;;;;8.40;7.80;;;;;;;16.93;64.54;93094.47;5079466;28;20193;-70
2022/07/21 02:55:36;;;;;;;8.07;7.57;;;;;;;16.80;64.90;93087.44;5081897;28;20190;-70
2022/07/21 02:58:12;;;;;;;8.97;8.27;;;;;;;16.81;64.76;93088.97;5082776;28;20181;-69
2022/07/21 03:00:43;;;;;;;8.47;8.07;;;;;;;16.78;64.57;93092.22;5062912;28;20766;-69
2022/07/21 03:03:09;;;;;;;9.03;8.30;;;;;;;16.81;64.61;93091.59;5081263;28;20292;-69
2022/07/21 03:05:35;;;;;;;8.37;7.97;;;;;;;16.78;65.46;93088.81;5080322;28;20777;-70
2022/07/21 03:08:01;;;;;;;9.50;8.90;;;;;;;16.79;66.01;93101.69;5080493;28;20248;-71
2022/07/21 03:10:26;;;;;;;8.00;7.60;;;;;;;16.78;65.67;93100.13;5081864;28;20196;-70
2022/07/21 03:12:52;;;;;;;8.57;8.10;;;;;;;16.90;65.98;93091.66;5080241;28;20197;-70
2022/07/21 03:15:17;;;;;;;8.17;7.77;;;;;;;17.04;65.04;93098.34;5080131;28;20188;-70
2022/07/21 03:17:43;;;;;;;8.27;7.80;;;;;;;17.26;64.48;93095.63;5061724;28;20213;-69
2022/07/21 03:20:09;;;;;;;8.00;7.60;;;;;;;17.66;63.39;93095.56;5079262;28;20261;-70
2022/07/21 03:22:34;;;;;;;9.10;8.53;;;;;;;17.96;62.83;93092.78;5081548;28;20222;-69
2022/07/21 03:25:00;;;;;;;8.17;7.57;;;;;;;17.93;62.68;93088.13;5081614;28;20245;-69
2022/07/21 03:27:25;;;;;;;9.77;9.13;;;;;;;18.04;62.65;93099.16;5080059;28;20209;-69
2022/07/21 03:29:51;;;;;;;9.33;8.63;;;;;;;18.03;63.05;93103.66;5081997;28;20201;-70
2022/07/21 03:32:16;;;;;;;9.00;8.50;;;;;;;18.15;61.55;93090.59;5080636;28;20228;-69
2022/07/21 03:34:42;;;;;;;9.57;9.07;;;;;;;18.69;61.66;93108.41;5080296;28;20200;-70
2022/07/21 03:37:07;;;;;;;9.23;8.63;;;;;;;18.62;62.54;93115.28;5080666;28;20232;-69
2022/07/21 03:39:32;;;;;;;10.20;9.53;;;;;;;18.20;63.54;93113.44;5078225;28;20181;-70
2022/07/21 03:41:58;;;;;;;10.07;9.47;;;;;;;18.29;63.54;93112.34;5079330;28;20225;-69
2022/07/21 03:44:23;;;;;;;9.23;8.50;;;;;;;19.00;60.78;93105.53;5060143;28;20203;-70
2022/07/21 03:46:49;;;;;;;8.80;8.10;;;;;;;19.12;60.14;93113.56;5077385;28;20281;-70
2022/07/21 03:49:14;;;;;;;8.40;7.80;;;;;;;18.59;62.40;93115.91;5080597;28;20190;-70
2022/07/21 03:51:40;;;;;;;8.60;8.10;;;;;;;18.42;62.73;93110.66;5079104;28;20245;-70
2022/07/21 03:54:05;;;;;;;8.83;8.20;;;;;;;18.64;62.82;93118.38;5081892;28;20202;-69
2022/07/21 03:56:30;;;;;;;9.40;8.77;;;;;;;18.86;62.31;93110.25;5079748;28;20255;-70
2022/07/21 03:58:56;;;;;;;10.67;7.83;;;;;;;18.90;62.55;93113.78;5080682;28;20263;-70
2022/07/21 04:01:21;;;;;;;9.20;8.50;;;;;;;18.82;63.37;93117.25;5078841;28;20229;-70
2022/07/21 04:03:46;;;;;;;8.97;8.37;;;;;;;18.93;62.94;93126.38;5082125;28;20218;-70
2022/07/21 04:06:12;;;;;;;9.67;9.03;;;;;;;18.91;62.87;93118.78;5079720;28;20248;-70
2022/07/21 04:08:38;;;;;;;11.10;8.17;;;;;;;18.92;63.04;93120.34;5079121;28;20264;-70
2022/07/21 04:11:04;;;;;;;10.07;9.37;;;;;;;18.95;63.15;93119.72;5078126;28;20258;-70
2022/07/21 04:13:31;;;;;;;11.17;8.40;;;;;;;18.94;62.73;93112.09;5079892;28;20231;-70
2022/07/21 04:15:56;;;;;;;9.10;8.43;;;;;;;19.07;63.09;93117.16;5080242;28;20226;-70
2022/07/21 04:18:21;;;;;;;9.20;8.60;;;;;;;19.01;63.29;93122.94;5080766;28;20195;-70
2022/07/21 04:20:47;;;;;;;9.20;8.60;;;;;;;19.05;63.71;93124.63;5078590;28;20233;-71
2022/07/21 04:23:12;;;;;;;9.77;8.87;;;;;;;19.11;61.19;93112.78;5079708;28;20190;-70
2022/07/21 04:25:38;;;;;;;11.80;8.67;;;;;;;19.36;60.24;93119.09;5078597;28;20187;-69
2022/07/21 04:28:05;;;;;;;8.40;8.00;;;;;;;19.45;57.63;93109.22;5080077;28;20214;-70
2022/07/21 04:30:30;;;;;;;8.60;8.10;;;;;;;19.66;56.98;93106.63;5079393;28;20582;-70
2022/07/21 04:32:56;;;;;;;9.20;8.70;;;;;;;20.07;53.38;93118.00;5081206;28;20325;-70
2022/07/21 04:35:21;;;;;;;9.10;8.40;;;;;;;20.12;53.03;93117.81;5077737;28;20190;-70
2022/07/21 04:37:47;;;;;;;9.37;8.77;;;;;;;20.45;55.00;93121.28;5078131;28;20223;-69
2022/07/21 04:40:14;;;;;;;8.50;8.00;;;;;;;20.22;56.33;93135.19;5076515;28;20176;-71
2022/07/21 04:42:40;;;;;;;8.63;8.17;;;;;;;20.16;57.26;93137.28;5080735;28;20226;-70
2022/07/21 04:45:08;;;;;;;10.13;9.43;;;;;;;20.08;60.19;93140.75;5076843;28;20181;-70
2022/07/21 04:47:42;;;;;;;9.17;8.63;;;;;;;19.99;58.75;93121.50;5062087;28;20222;-70
2022/07/21 04:50:09;;;;;;;9.90;8.93;;;;;;;19.90;58.53;93128.72;5076898;28;20245;-69
2022/07/21 04:52:35;;;;;;;9.50;8.80;;;;;;;19.88;58.78;93141.53;5078515;28;20215;-70
2022/07/21 04:55:00;;;;;;;10.60;9.73;;;;;;;19.75;58.73;93141.78;5078736;28;20184;-70
2022/07/21 04:57:25;;;;;;;10.43;9.40;;;;;;;19.80;57.94;93137.03;5078005;28;20292;-70
2022/07/21 04:59:51;;;;;;;12.87;9.97;;;;;;;20.07;57.04;93147.16;5078867;28;20184;-70
2022/07/21 05:02:16;;;;;;;10.27;9.67;;;;;;;20.11;57.68;93153.34;5076968;28;20228;-71
2022/07/21 05:04:41;;;;;;;10.27;9.43;;;;;;;19.69;59.17;93146.47;5077371;28;20196;-70
2022/07/21 05:07:07;;;;;;;10.73;9.97;;;;;;;19.85;58.37;93147.47;5076514;28;20227;-70
2022/07/21 05:09:32;;;;;;;9.87;9.03;;;;;;;20.25;58.03;93147.84;5079253;28;20199;-71
2022/07/21 05:11:58;;;;;;;15.30;9.17;;;;;;;20.44;57.21;93154.22;5077518;28;20223;-70
2022/07/21 05:14:23;;;;;;;10.27;9.47;;;;;;;20.41;57.74;93125.69;5081417;28;20187;-70
2022/07/21 05:16:49;;;;;;;10.47;9.63;;;;;;;20.97;55.18;93147.31;5077380;28;20228;-71
2022/07/21 05:19:14;;;;;;;15.83;9.77;;;;;;;20.73;56.21;93132.88;5078780;28;20182;-70
2022/07/21 05:21:40;;;;;;;11.63;10.60;;;;;;;20.95;55.49;93147.63;5079730;28;20243;-69
2022/07/21 05:24:05;;;;;;;13.00;10.03;;;;;;;20.52;57.68;93137.44;5080469;28;20214;-70
2022/07/21 05:26:31;;;;;;;11.73;10.63;;;;;;;20.77;57.75;93142.81;5077885;28;20220;-70
2022/07/21 05:28:56;;;;;;;11.75;10.57;;;;;;;20.70;57.58;93146.78;5064551;28;20215;-68
2022/07/21 05:31:21;;;;;;;11.23;10.30;;;;;;;21.07;56.93;93149.56;5082252;28;20231;-70
2022/07/21 05:33:47;;;;;;;11.25;10.38;;;;;;;21.49;55.30;93143.75;5085492;28;20184;-69
2022/07/21 05:36:12;;;;;;;9.95;9.13;;;;;;;21.61;54.08;93149.06;5082505;28;20232;-71
2022/07/21 05:38:38;;;;;;;11.05;10.18;;;;;;;21.91;53.52;93138.97;5063223;28;20194;-69
2022/07/21 05:41:04;;;;;;;10.05;9.13;;;;;;;21.98;53.24;93157.78;5082589;28;20240;-70
2022/07/21 05:43:31;;;;;;;10.20;9.50;;;;;;;23.12;50.11;93164.06;5064436;28;20192;-70
2022/07/21 05:45:58;;;;;;;9.75;9.05;;;;;;;22.30;52.06;93156.84;5079103;28;20285;-70
2022/07/21 05:48:23;;;;;;;11.20;9.90;;;;;;;23.62;48.33;93145.56;5063520;28;20286;-71
2022/07/21 05:50:49;;;;;;;10.05;9.20;;;;;;;23.98;46.75;93154.38;5081445;28;20221;-70
2022/07/21 05:53:14;;;;;;;10.68;9.48;;;;;;;23.85;47.52;93153.69;5083696;28;20649;-70
2022/07/21 05:55:39;;;;;;;10.98;9.90;;;;;;;28.57;37.35;93178.94;5083027;28;20192;-70
2022/07/21 05:58:05;;;;;;;9.90;8.85;;;;;;;30.03;33.31;93171.63;5083797;28;20195;-70
2022/07/21 06:00:30;;;;;;;9.57;8.45;;;;;;;34.58;26.75;93186.25;5064036;28;20243;-72
2022/07/21 06:02:55;;;;;;;11.88;8.82;;;;;;;36.06;24.88;93192.19;5081839;28;20216;-70
2022/07/21 06:05:21;;;;;;;10.07;8.05;;;;;;;37.06;23.44;93192.78;5083607;28;20212;-71
2022/07/21 06:07:48;;;;;;;9.07;8.38;;;;;;;37.33;22.72;93190.47;5081743;28;20216;-71
2022/07/21 06:10:14;;;;;;;8.73;7.82;;;;;;;38.62;21.13;93206.81;5080811;28;20193;-70
2022/07/21 06:12:39;;;;;;;8.60;7.90;;;;;;;37.19;22.74;93179.94;5081020;28;20232;-70
2022/07/21 06:15:06;;;;;;;8.60;7.90;;;;;;;38.38;20.66;93198.22;5082528;28;20204;-71
2022/07/21 06:17:37;;;;;;;8.18;7.45;;;;;;;39.09;20.39;93199.34;5081706;28;20228;-70
2022/07/21 06:20:05;;;;;;;7.82;7.22;;;;;;;36.86;22.72;93195.63;5078673;28;20186;-71
2022/07/21 06:22:30;;;;;;;8.20;7.63;;;;;;;38.96;20.69;93195.88;5079863;28;20240;-71
2022/07/21 06:24:56;;;;;;;8.02;7.22;;;;;;;38.74;20.77;93197.84;5083007;28;20209;-70
2022/07/21 06:27:21;;;;;;;9.02;7.40;;;;;;;37.56;21.60;93189.44;5080122;28;20300;-71
2022/07/21 06:29:47;;;;;;;8.10;6.68;;;;;;;40.13;18.96;93197.88;5082506;28;20207;-71
2022/07/21 06:32:12;;;;;;;7.75;7.07;;;;;;;40.34;18.79;93197.81;5085155;28;20213;-70
2022/07/21 06:34:37;;;;;;;7.03;6.50;;;;;;;39.16;19.74;93190.91;5081958;28;20185;-70
2022/07/21 06:37:03;;;;;;;7.47;6.88;;;;;;;39.46;19.43;93201.16;5082787;28;20213;-72
2022/07/21 06:39:28;;;;;;;7.40;6.90;;;;;;;39.43;19.53;93196.56;5081055;28;20200;-71
2022/07/21 06:41:53;;;;;;;6.80;6.20;;;;;;;39.93;19.14;93198.22;5080973;28;20225;-71
2022/07/21 06:44:19;;;;;;;7.63;7.03;;;;;;;39.47;19.50;93196.47;5081417;28;20235;-71
2022/07/21 06:46:44;;;;;;;7.85;7.20;;;;;;;37.04;22.71;93181.56;5080933;28;20852;-71
2022/07/21 06:49:10;;;;;;;8.48;7.35;;;;;;;32.68;27.08;93159.09;5081362;28;20258;-71
2022/07/21 06:51:36;;;;;;;8.60;7.70;;;;;;;29.41;32.72;93157.75;5080219;28;20229;-70
2022/07/21 06:54:01;;;;;;;8.30;7.53;;;;;;;28.68;33.23;93150.19;5081782;28;20217;-71
2022/07/21 06:56:27;;;;;;;9.02;8.10;;;;;;;27.95;35.54;93155.88;5081290;28;20247;-70
2022/07/21 06:58:52;;;;;;;9.35;8.63;;;;;;;26.97;37.96;93146.88;5081651;28;20181;-70
2022/07/21 07:01:18;;;;;;;12.95;8.60;;;;;;;26.53;38.88;93136.78;5081058;28;20245;-70
2022/07/21 07:03:44;;;;;;;9.32;8.43;;;;;;;25.64;40.97;93149.22;5081373;28;20205;-71
2022/07/21 07:06:11;;;;;;;9.00;8.15;;;;;;;25.50;41.47;93140.97;5075776;28;20225;-70
2022/07/21 07:08:38;;;;;;;8.57;7.88;;;;;;;25.44;42.14;93153.13;5080729;28;20224;-70
2022/07/21 07:11:03;;;;;;;10.13;9.20;;;;;;;25.84;41.32;93145.34;5079250;28;20323;-70
2022/07/21 07:13:29;;;;;;;9.40;8.70;;;;;;;25.29;41.83;93136.03;5081200;28;20193;-70
2022/07/21 07:15:54;;;;;;;9.02;8.32;;;;;;;25.17;43.37;93138.88;5081931;28;20243;-71
2022/07/21 07:18:22;;;;;;;8.50;7.85;;;;;;;25.62;42.19;93121.31;5079018;28;20186;-70
2022/07/21 07:20:47;;;;;;;9.43;8.70;;;;;;;25.85;41.76;93136.19;5083264;28;20258;-70
2022/07/21 07:23:13;;;;;;;10.43;9.32;;;;;;;25.99;41.41;93136.44;5081723;28;20185;-71
2022/07/21 07:25:38;;;;;;;9.35;8.45;;;;;;;26.02;42.08;93141.06;5079295;28;20177;-71
2022/07/21 07:28:05;;;;;;;8.30;7.45;;;;;;;25.86;41.42;93142.31;5081215;28;20208;-70
2022/07/21 07:30:30;;;;;;;9.35;7.90;;;;;;;26.46;40.85;93135.91;5077967;28;20211;-70
2022/07/21 07:32:56;;;;;;;12.13;8.82;;;;;;;26.39;40.60;93133.91;5081019;28;20208;-71
2022/07/21 07:35:21;;;;;;;8.82;8.13;;;;;;;26.48;39.80;93120.25;5078690;28;20214;-69
2022/07/21 07:37:47;;;;;;;9.23;8.32;;;;;;;26.27;41.59;93130.69;5081197;28;20220;-70
2022/07/21 07:40:16;;;;;;;8.63;7.93;;;;;;;26.38;40.84;93137.72;5079337;28;20194;-70
2022/07/21 07:42:42;;;;;;;8.27;7.78;;;;;;;26.21;40.38;93124.13;5063565;28;20220;-71
2022/07/21 07:45:08;;;;;;;8.85;8.27;;;;;;;26.54;40.82;93122.22;5077441;28;20184;-71
2022/07/21 07:47:34;;;;;;;9.23;8.38;;;;;;;26.94;39.15;93129.63;5078911;28;20217;-71
2022/07/21 07:50:00;;;;;;;7.65;7.25;;;;;;;26.60;41.21;93123.44;5079884;28;20188;-70
2022/07/21 07:52:28;;;;;;;8.65;8.05;;;;;;;26.78;41.06;93110.28;5077900;28;20233;-70
2022/07/21 07:54:53;;;;;;;10.88;8.45;;;;;;;26.67;39.55;93128.94;5080249;28;20185;-71
2022/07/21 07:57:19;;;;;;;7.82;7.10;;;;;;;26.97;40.35;93120.06;5078959;28;20213;-70
2022/07/21 07:59:44;;;;;;;8.82;8.18;;;;;;;26.90;37.14;93110.03;5081322;28;20185;-71
2022/07/21 08:02:09;;;;;;;8.60;7.97;;;;;;;26.75;37.14;93121.75;5079648;28;20224;-70
2022/07/21 08:04:35;;;;;;;9.27;8.30;;;;;;;26.70;39.55;93106.78;5080515;28;20196;-70
2022/07/21 08:07:04;;;;;;;8.23;7.43;;;;;;;26.93;38.84;93120.03;5077884;28;20297;-70
2022/07/21 08:09:30;;;;;;;7.53;6.88;;;;;;;26.77;37.49;93107.97;5063125;28;20215;-70
2022/07/21 08:11:55;;;;;;;8.25;7.75;;;;;;;26.67;37.79;93102.16;5077029;28;20220;-70
2022/07/21 08:14:21;;;;;;;9.63;7.25;;;;;;;26.91;38.36;93108.13;5081322;28;20199;-70
2022/07/21 08:16:46;;;;;;;7.93;7.20;;;;;;;27.09;38.21;93112.53;5078847;28;20877;-70
2022/07/21 08:19:12;;;;;;;8.02;7.32;;;;;;;27.10;36.85;93113.31;5079527;28;20197;-70
2022/07/21 08:21:37;;;;;;;8.25;7.68;;;;;;;27.32;37.24;93086.34;5076495;28;20225;-68
2022/07/21 08:24:03;;;;;;;7.45;7.05;;;;;;;27.37;37.13;93090.59;5080404;28;20193;-71
2022/07/21 08:26:28;;;;;;;7.35;6.95;;;;;;;27.32;37.14;93104.34;5080164;28;20215;-70
2022/07/21 08:28:55;;;;;;;8.30;7.60;;;;;;;27.42;37.14;93109.03;5078019;28;20201;-70
2022/07/21 08:31:21;;;;;;;8.70;7.97;;;;;;;27.40;37.12;93112.09;5079555;28;20260;-70
2022/07/21 08:33:47;;;;;;;8.60;8.00;;;;;;;27.24;35.67;93103.47;5081543;28;20193;-70
2022/07/21 08:36:12;;;;;;;7.00;6.60;;;;;;;27.52;36.54;93097.63;5082022;28;20237;-71
2022/07/21 08:38:38;;;;;;;8.23;7.53;;;;;;;27.71;36.68;93095.47;5079285;28;20194;-70
2022/07/21 08:41:03;;;;;;;7.38;6.97;;;;;;;27.72;35.16;93098.94;5080686;28;20244;-70
2022/07/21 08:43:30;;;;;;;8.55;7.68;;;;;;;27.56;36.25;93103.78;5078827;28;20204;-71
2022/07/21 08:45:55;;;;;;;8.20;7.60;;;;;;;27.84;35.85;93098.63;5078430;28;20290;-69
2022/07/21 08:48:26;;;;;;;7.60;7.20;;;;;;;27.80;36.40;93101.28;5082091;28;20212;-71
2022/07/21 08:50:52;;;;;;;8.00;7.50;;;;;;;28.01;35.11;93100.69;5078344;28;20240;-70
2022/07/21 08:53:17;;;;;;;7.55;7.15;;;;;;;28.20;34.03;93089.66;5081350;28;20203;-70
2022/07/21 08:55:43;;;;;;;12.38;7.72;;;;;;;27.93;35.35;93093.72;5080409;28;20189;-71
2022/07/21 08:58:10;;;;;;;8.75;7.95;;;;;;;27.94;35.60;93096.03;5079001;28;20217;-70
2022/07/21 09:00:36;;;;;;;9.18;8.25;;;;;;;28.21;35.08;93091.97;5079140;28;20184;-70
2022/07/21 09:03:13;;;;;;;7.95;7.28;;;;;;;28.22;34.03;93092.72;5078810;28;20213;-71
2022/07/21 09:05:39;;;;;;;6.95;6.45;;;;;;;28.16;33.86;93089.66;5076773;28;20184;-70
2022/07/21 09:08:04;;;;;;;7.18;6.57;;;;;;;28.12;33.72;93071.97;5060213;28;21155;-70
2022/07/21 09:10:31;;;;;;;7.63;7.22;;;;;;;28.10;34.30;93093.06;5078280;28;20185;-71
2022/07/21 09:13:00;;;;;;;7.25;6.80;;;;;;;28.09;34.13;93088.84;5078026;28;20185;-70
2022/07/21 09:15:28;;;;;;;7.80;7.25;;;;;;;28.25;32.94;93081.25;5077865;28;20205;-70
2022/07/21 09:18:11;;;;;;;7.32;6.90;;;;;;;27.80;33.42;93071.75;5079582;28;20238;-70
2022/07/21 09:20:39;;;;;;;7.82;7.22;;;;;;;27.90;33.58;93091.78;5061060;28;20212;-70
2022/07/21 09:23:13;;;;;;;8.23;7.68;;;;;;;28.17;34.88;93044.78;5077498;28;20772;-70
2022/07/21 09:25:47;;;;;;;7.45;6.95;;;;;;;28.27;33.06;93072.81;5078290;28;20250;-70
2022/07/21 09:28:22;;;;;;;8.20;7.50;;;;;;;28.42;34.62;93082.47;5062054;28;20294;-70
2022/07/21 09:30:59;;;;;;;7.80;7.30;;;;;;;28.55;34.00;93079.09;5078577;28;20734;-70
2022/07/21 09:33:33;;;;;;;7.88;7.38;;;;;;;28.64;33.14;93084.88;5060792;28;20233;-70
2022/07/21 09:36:11;;;;;;;7.03;6.57;;;;;;;28.49;31.98;93069.88;5079167;28;20232;-70
2022/07/21 09:38:41;;;;;;;7.20;6.80;;;;;;;28.51;31.96;93081.00;5073533;28;20169;-71
2022/07/21 09:41:10;;;;;;;6.78;6.28;;;;;;;28.43;31.38;93071.34;5077918;28;20231;-72
2022/07/21 09:43:44;;;;;;;7.50;7.00;;;;;;;28.43;31.73;93074.03;5079141;28;20177;-70
2022/07/21 09:46:28;;;;;;;7.53;7.03;;;;;;;28.61;31.53;93069.53;5078639;28;20227;-70
2022/07/21 09:49:00;;;;;;;8.10;7.32;;;;;;;28.66;31.61;93074.53;5079916;28;20218;-70
2022/07/21 09:51:33;;;;;;;7.55;7.15;;;;;;;28.80;32.91;93077.25;5059291;28;20225;-70
2022/07/21 09:54:09;;;;;;;7.00;6.60;;;;;;;28.73;31.70;93081.84;5078260;28;20189;-70
2022/07/21 09:56:40;;;;;;;7.47;6.97;;;;;;;28.67;32.04;93065.31;5074757;28;20264;-70
2022/07/21 09:59:07;;;;;;;7.22;6.82;;;;;;;28.59;32.36;93073.75;5078620;28;20262;-71
2022/07/21 10:01:35;;;;;;;8.05;7.32;;;;;;;28.61;31.27;93072.22;5078589;28;20229;-70
2022/07/21 10:04:00;;;;;;;7.15;6.65;;;;;;;28.59;31.33;93063.00;5078964;28;20277;-70
2022/07/21 10:06:31;;;;;;;7.57;6.95;;;;;;;28.59;31.15;93071.06;5075819;28;20209;-70
2022/07/21 10:08:58;;;;;;;7.78;7.28;;;;;;;28.54;31.22;93069.50;5076232;28;20247;-71
2022/07/21 10:11:25;;;;;;;7.75;7.00;;;;;;;28.45;31.91;93025.31;5075328;28;20280;-70
2022/07/21 10:13:51;;;;;;;7.63;7.22;;;;;;;28.66;31.71;93069.16;5079093;28;20250;-71
2022/07/21 10:16:16;;;;;;;7.57;7.18;;;;;;;28.88;30.39;93065.38;5081047;28;20221;-70
2022/07/21 10:18:58;;;;;;;7.57;7.18;;;;;;;29.09;30.44;93070.06;5083400;28;20263;-71
2022/07/21 10:21:40;;;;;;;7.53;6.82;;;;;;;28.98;31.13;93063.88;5081836;28;20255;-70
2022/07/21 10:24:10;;;;;;;7.93;7.20;;;;;;;28.46;29.96;93053.69;5080055;28;20183;-70
2022/07/21 10:26:37;;;;;;;7.40;6.80;;;;;;;28.54;30.57;93055.28;5080939;28;20240;-71
2022/07/21 10:29:02;;;;;;;7.03;6.53;;;;;;;28.60;32.25;93045.72;5081604;28;20218;-69
2022/07/21 10:31:28;;;;;;;7.22;6.72;;;;;;;28.53;31.89;93048.38;5080968;28;20236;-70
2022/07/21 10:33:59;;;;;;;7.75;7.20;;;;;;;29.02;31.73;93046.59;5079725;28;20197;-70
2022/07/21 10:36:27;;;;;;;7.47;7.05;;;;;;;28.89;32.34;93056.16;5082799;28;20242;-70
2022/07/21 10:39:17;;;;;;;7.78;7.28;;;;;;;28.52;31.09;93044.94;5081207;28;20183;-69
2022/07/21 10:41:45;;;;;;;8.38;7.85;;;;;;;28.46;30.64;93051.78;5081399;28;20243;-70
2022/07/21 10:44:30;;;;;;;7.68;7.18;;;;;;;28.49;30.76;93047.59;5081977;28;20189;-70
2022/07/21 10:47:20;;;;;;;7.05;6.63;;;;;;;28.79;31.28;93048.06;5078717;28;20256;-69
2022/07/21 10:49:47;;;;;;;8.45;7.75;;;;;;;29.04;29.83;93043.50;5069162;28;20261;-71
2022/07/21 10:52:34;;;;;;;7.82;7.40;;;;;;;29.07;30.07;93040.88;5081024;28;20278;-70
2022/07/21 10:55:26;;;;;;;18.25;7.95;;;;;;;29.03;29.77;93042.72;5064773;28;20197;-70
2022/07/21 10:58:28;;;;;;;7.05;6.65;;;;;;;28.95;30.28;93035.06;5081925;28;20231;-71
2022/07/21 11:01:04;;;;;;;7.70;6.72;;;;;;;29.19;29.39;93028.94;5080827;28;20236;-70
2022/07/21 11:03:34;;;;;;;7.15;6.75;;;;;;;28.88;29.31;93021.59;5077295;28;20238;-70
2022/07/21 11:06:06;;;;;;;7.72;7.28;;;;;;;28.76;30.37;93020.03;5081746;28;20299;-70
2022/07/21 11:08:51;;;;;;;7.43;7.03;;;;;;;29.14;29.11;93016.66;5081980;28;20235;-70
2022/07/21 11:11:22;;;;;;;7.20;6.75;;;;;;;29.18;29.56;93019.34;5079470;28;20283;-72
2022/07/21 11:14:06;;;;;;;7.53;7.10;;;;;;;29.19;30.45;93016.28;5081623;28;20215;-70
2022/07/21 11:16:52;;;;;;;7.43;6.93;;;;;;;29.20;29.86;93017.81;5061743;28;20360;-70
2022/07/21 11:19:39;;;;;;;8.88;7.13;;;;;;;29.36;29.11;93012.81;5079660;28;20188;-70
2022/07/21 11:22:13;;;;;;;7.35;6.90;;;;;;;29.21;29.75;93008.59;5077414;28;20228;-70
2022/07/21 11:24:45;;;;;;;7.70;7.22;;;;;;;29.20;29.69;93007.03;5078435;28;20212;-70
2022/07/21 11:27:13;;;;;;;7.45;7.05;;;;;;;29.35;28.93;93007.81;5079903;28;20270;-70
2022/07/21 11:29:40;;;;;;;7.35;6.82;;;;;;;29.18;28.72;93009.38;5079649;28;20187;-68
2022/07/21 11:32:08;;;;;;;8.02;7.30;;;;;;;29.40;28.67;93015.50;5077811;28;20315;-70
2022/07/21 11:34:54;;;;;;;7.55;7.05;;;;;;;29.42;28.28;93013.97;5080745;28;20189;-70
2022/07/21 11:37:36;;;;;;;7.60;7.10;;;;;;;29.52;28.29;92991.66;5079118;28;20237;-70